Time;durP1;ratioP1;P1;durP2;ratioP2;P2;SDS_P1;SDS_P2;PMS_P1;PMS_P2;Temp;Humidity;BMP_temperature;BMP_pressure;BME280_temperature;BME280_humidity;BME280_pressure;Samples;Min_cycle;Max_cycle;Signal;HPM_P1;HPM_P2
2021/10/09 08:23:39;;;;;;;12.20;6.03;;;11.60;99.90;;;;;;4947000;29;20220;-75
2021/10/09 08:26:32;;;;;;;11.80;6.30;;;11.40;99.90;;;;;;4938792;28;20216;-76
2021/10/09 08:40:02;;;;;;;11.90;6.40;;;11.30;99.90;;;;;;4919038;29;20229;-78
2021/10/09 08:42:29;;;;;;;11.80;6.50;;;11.30;99.90;;;;;;4919412;29;20234;-79
2021/10/09 08:44:56;;;;;;;13.17;6.60;;;11.20;99.90;;;;;;4919345;29;20220;-78
2021/10/09 08:47:22;;;;;;;13.07;6.63;;;11.40;99.90;;;;;;4919126;29;20241;-79
2021/10/09 08:49:50;;;;;;;12.13;6.50;;;11.40;99.90;;;;;;4919153;29;20584;-78
2021/10/09 08:52:20;;;;;;;14.10;7.27;;;11.00;99.90;;;;;;4919392;29;20217;-78
2021/10/09 08:54:47;;;;;;;13.13;7.13;;;10.90;99.90;;;;;;4919228;29;20226;-75
2021/10/09 08:57:19;;;;;;;16.07;7.20;;;10.90;99.90;;;;;;4919475;29;20210;-78
2021/10/09 08:59:52;;;;;;;14.67;7.47;;;11.00;99.90;;;;;;4918958;29;20225;-78
2021/10/09 09:02:22;;;;;;;15.97;7.73;;;11.30;99.90;;;;;;4918890;29;20249;-74
2021/10/09 09:04:59;;;;;;;15.27;7.57;;;11.60;99.90;;;;;;4918720;29;20235;-77
2021/10/09 09:07:49;;;;;;;16.67;7.47;;;12.00;99.90;;;;;;4918782;29;20263;-78
2021/10/09 09:27:31;;;;;;;12.83;7.20;;;12.80;99.90;;;;;;4897510;29;20241;-74
2021/10/09 09:33:39;;;;;;;13.10;6.83;;;13.00;99.90;;;;;;4915981;29;20565;-78
2021/10/09 09:36:22;;;;;;;15.40;6.97;;;13.00;99.90;;;;;;4918287;29;20209;-77
2021/10/09 09:38:56;;;;;;;16.93;8.40;;;13.00;99.90;;;;;;4918237;29;20486;-79
2021/10/09 09:41:26;;;;;;;15.90;8.00;;;12.80;99.90;;;;;;4918572;29;20209;-79
2021/10/09 09:43:54;;;;;;;18.77;8.20;;;12.50;99.90;;;;;;4918358;29;20217;-78
2021/10/09 09:46:24;;;;;;;15.20;7.40;;;12.50;99.90;;;;;;4918549;29;20216;-77
2021/10/09 09:48:52;;;;;;;16.60;8.20;;;12.60;99.90;;;;;;4918217;29;20708;-77
2021/10/09 09:51:20;;;;;;;16.87;7.67;;;12.60;99.90;;;;;;4918265;29;20224;-79
2021/10/09 09:53:49;;;;;;;16.30;7.73;;;12.40;99.90;;;;;;4918044;29;20213;-79
2021/10/09 09:56:17;;;;;;;18.17;8.00;;;12.50;99.90;;;;;;4918131;29;20233;-78
2021/10/09 09:58:46;;;;;;;16.03;7.83;;;12.60;99.90;;;;;;4918181;29;20234;-78
2021/10/09 10:01:13;;;;;;;17.83;8.97;;;12.60;99.90;;;;;;4917993;29;20240;-78
2021/10/09 10:03:46;;;;;;;14.97;8.13;;;12.70;99.90;;;;;;4918272;29;20236;-79
2021/10/09 10:06:14;;;;;;;15.67;8.10;;;12.60;99.90;;;;;;4918160;29;20604;-79
2021/10/09 10:08:41;;;;;;;16.90;9.17;;;12.80;99.90;;;;;;4917731;29;20241;-76
2021/10/09 10:11:10;;;;;;;16.33;8.07;;;12.60;99.90;;;;;;4918076;29;20296;-77
2021/10/09 10:13:38;;;;;;;16.73;8.10;;;12.70;99.90;;;;;;4918063;29;20780;-76
2021/10/09 10:16:07;;;;;;;18.63;8.97;;;12.90;99.90;;;;;;4918009;29;20568;-76
2021/10/09 10:18:50;;;;;;;16.73;7.93;;;12.90;99.90;;;;;;4917936;29;20229;-78
2021/10/09 10:21:18;;;;;;;16.40;8.27;;;12.90;99.90;;;;;;4917468;29;20680;-79
2021/10/09 10:23:46;;;;;;;17.83;8.73;;;13.10;99.90;;;;;;4917511;29;20212;-77
2021/10/09 10:26:31;;;;;;;15.50;7.87;;;13.30;99.90;;;;;;4917565;29;20683;-76
2021/10/09 10:29:24;;;;;;;14.80;7.60;;;13.40;99.90;;;;;;4917531;29;20245;-79
2021/10/09 10:32:14;;;;;;;16.33;7.80;;;13.60;99.90;;;;;;4922710;29;20240;-76
2021/10/09 10:34:46;;;;;;;15.90;8.30;;;13.70;99.90;;;;;;4926346;29;20210;-77
2021/10/09 10:37:35;;;;;;;13.63;6.97;;;13.80;99.90;;;;;;4925799;29;20209;-78
2021/10/09 10:40:03;;;;;;;15.53;7.17;;;13.90;99.90;;;;;;4927244;29;20729;-75
2021/10/09 10:42:31;;;;;;;15.03;7.27;;;14.00;99.90;;;;;;4924925;29;20206;-75
2021/10/09 10:45:09;;;;;;;13.77;7.13;;;14.00;99.90;;;;;;4928809;29;20323;-77
2021/10/09 10:47:54;;;;;;;16.83;6.80;;;14.20;99.90;;;;;;4927105;29;20805;-74
2021/10/09 10:51:00;;;;;;;16.00;7.50;;;14.30;99.90;;;;;;4929936;29;20533;-77
2021/10/09 10:54:18;;;;;;;13.27;6.57;;;14.40;99.90;;;;;;4930206;29;20205;-74
2021/10/09 10:57:19;;;;;;;12.20;6.53;;;14.50;99.90;;;;;;4935869;29;20308;-77
2021/10/09 10:59:49;;;;;;;13.10;6.43;;;14.60;99.90;;;;;;4930702;29;20583;-78
2021/10/09 11:02:18;;;;;;;15.33;7.63;;;14.80;99.90;;;;;;4936040;29;20576;-75
2021/10/09 11:04:48;;;;;;;12.83;6.60;;;14.80;99.90;;;;;;4936285;29;20213;-73
2021/10/09 11:07:17;;;;;;;15.47;6.90;;;14.90;99.90;;;;;;4935914;29;20238;-74
2021/10/09 11:09:44;;;;;;;13.40;6.53;;;15.20;99.90;;;;;;4936201;29;20229;-75
2021/10/09 11:12:25;;;;;;;10.53;5.97;;;15.30;99.90;;;;;;4936141;29;20209;-77
2021/10/09 11:15:02;;;;;;;10.73;5.93;;;15.60;99.90;;;;;;4936023;29;20213;-76
2021/10/09 11:17:33;;;;;;;10.97;5.93;;;15.70;99.90;;;;;;4935769;29;20616;-73
2021/10/09 11:19:59;;;;;;;9.13;5.50;;;15.80;99.90;;;;;;4935454;29;20232;-78
2021/10/09 11:22:39;;;;;;;10.63;6.33;;;15.80;99.90;;;;;;4935684;29;20437;-73
2021/10/09 11:25:07;;;;;;;13.20;6.10;;;15.80;99.90;;;;;;4935955;29;20216;-75
2021/10/09 11:27:35;;;;;;;10.10;5.90;;;15.80;99.90;;;;;;4935716;29;20228;-73
2021/10/09 11:30:05;;;;;;;11.27;5.67;;;15.90;99.90;;;;;;4935692;29;20225;-73
2021/10/09 11:32:34;;;;;;;11.73;6.53;;;15.80;99.90;;;;;;4935491;29;20213;-74
2021/10/09 11:35:01;;;;;;;11.60;5.83;;;15.80;99.90;;;;;;4935680;29;20213;-72
2021/10/09 11:37:29;;;;;;;10.63;5.70;;;15.70;99.90;;;;;;4935972;29;20220;-73
2021/10/09 11:39:59;;;;;;;13.70;6.23;;;15.80;99.90;;;;;;4935765;29;20235;-76
2021/10/09 11:42:29;;;;;;;11.87;6.40;;;15.80;99.90;;;;;;4935641;29;20216;-72
2021/10/09 11:45:07;;;;;;;11.23;5.93;;;15.80;99.90;;;;;;4935487;29;20233;-73
2021/10/09 11:53:39;;;;;;;10.93;6.30;;;16.00;99.90;;;;;;4939459;29;20219;-73
2021/10/09 11:56:07;;;;;;;9.80;5.90;;;16.20;99.90;;;;;;4939518;29;20216;-73
2021/10/09 11:58:43;;;;;;;9.07;5.43;;;16.20;99.90;;;;;;4939285;29;20240;-73
2021/10/09 12:01:27;;;;;;;11.87;5.93;;;16.30;99.90;;;;;;4939347;29;20217;-72
2021/10/09 12:03:55;;;;;;;8.17;4.63;;;16.20;99.90;;;;;;4933837;29;20201;-72
2021/10/09 12:06:21;;;;;;;10.37;5.73;;;16.30;99.90;;;;;;4939365;29;20216;-72
2021/10/09 12:08:55;;;;;;;10.40;5.47;;;16.40;99.90;;;;;;4939116;29;20240;-73
2021/10/09 12:11:26;;;;;;;11.50;5.77;;;16.30;99.90;;;;;;4937530;29;20220;-72
2021/10/09 12:13:58;;;;;;;16.23;5.67;;;16.50;99.90;;;;;;4938970;29;20204;-73
2021/10/09 12:16:29;;;;;;;10.83;5.30;;;16.60;99.90;;;;;;4938845;29;20215;-72
2021/10/09 12:18:57;;;;;;;11.33;5.90;;;16.70;99.90;;;;;;4933942;29;20225;-73
2021/10/09 12:21:26;;;;;;;12.87;5.70;;;16.50;99.90;;;;;;4920665;29;20211;-73
2021/10/09 12:23:55;;;;;;;8.87;4.97;;;16.50;99.90;;;;;;4919584;29;20209;-73
2021/10/09 12:26:24;;;;;;;10.07;5.13;;;16.70;99.90;;;;;;4919688;29;20238;-73
2021/10/09 12:29:09;;;;;;;10.07;5.17;;;16.50;99.90;;;;;;4919834;29;20252;-72
2021/10/09 12:31:37;;;;;;;6.77;4.67;;;16.70;99.90;;;;;;4919673;29;20580;-73
2021/10/09 12:34:05;;;;;;;9.03;4.53;;;16.80;99.90;;;;;;4937804;29;20205;-71
2021/10/09 12:36:35;;;;;;;5.63;3.33;;;16.80;99.90;;;;;;4938764;29;20205;-72
2021/10/09 12:39:25;;;;;;;7.37;3.83;;;16.90;99.90;;;;;;4935456;29;20247;-73
2021/10/09 12:41:53;;;;;;;7.33;4.27;;;16.80;99.90;;;;;;4925274;29;20197;-77
2021/10/09 12:44:20;;;;;;;8.33;4.10;;;16.80;99.90;;;;;;4934462;29;20683;-78
2021/10/09 12:46:47;;;;;;;6.17;3.73;;;16.80;99.90;;;;;;4938408;29;20213;-76
2021/10/09 12:49:16;;;;;;;6.53;3.23;;;16.80;99.90;;;;;;4932193;29;20241;-77
2021/10/09 12:51:43;;;;;;;8.73;4.27;;;17.10;99.90;;;;;;4919387;29;20564;-78
2021/10/09 12:54:10;;;;;;;7.37;3.87;;;17.30;99.90;;;;;;4934113;29;20272;-77
2021/10/09 12:56:41;;;;;;;5.87;3.40;;;17.50;99.90;;;;;;4936826;29;20241;-76
2021/10/09 12:59:08;;;;;;;5.80;3.67;;;17.50;99.90;;;;;;4938087;29;20240;-76
2021/10/09 13:01:35;;;;;;;7.77;3.50;;;17.60;99.90;;;;;;4920953;29;20220;-73
2021/10/09 13:04:02;;;;;;;5.90;3.50;;;17.40;99.90;;;;;;4919129;29;20701;-72
2021/10/09 13:06:28;;;;;;;8.17;3.33;;;17.50;99.90;;;;;;4919257;29;20240;-77
2021/10/09 13:08:56;;;;;;;5.33;2.97;;;17.60;99.90;;;;;;4919096;29;20238;-76
2021/10/09 13:11:25;;;;;;;9.17;3.30;;;17.40;99.90;;;;;;4918958;29;20213;-75
2021/10/09 13:13:53;;;;;;;6.33;3.47;;;17.30;99.90;;;;;;4919756;29;20205;-77
2021/10/09 13:16:20;;;;;;;7.47;3.53;;;17.30;99.90;;;;;;4918379;29;20214;-77
2021/10/09 13:18:47;;;;;;;7.80;3.63;;;17.20;99.90;;;;;;4917754;29;20732;-76
2021/10/09 13:21:14;;;;;;;6.53;3.00;;;17.30;99.90;;;;;;4918251;29;20236;-77
2021/10/09 13:23:41;;;;;;;5.13;2.73;;;17.50;99.90;;;;;;4921530;29;20206;-76
2021/10/09 13:26:08;;;;;;;6.53;3.00;;;17.60;99.90;;;;;;4918643;29;20213;-77
2021/10/09 13:28:37;;;;;;;4.17;2.60;;;17.60;99.90;;;;;;4919549;29;20234;-76
2021/10/09 13:31:05;;;;;;;4.03;2.20;;;17.60;99.90;;;;;;4920013;29;20741;-74
2021/10/09 13:33:32;;;;;;;4.33;2.60;;;17.50;99.90;;;;;;4921171;29;20304;-74
2021/10/09 13:35:59;;;;;;;4.77;2.67;;;17.40;99.90;;;;;;4918399;29;20569;-77
2021/10/09 13:38:30;;;;;;;3.53;2.20;;;17.30;99.90;;;;;;4919062;29;20236;-78
2021/10/09 13:40:57;;;;;;;7.00;2.63;;;17.40;99.90;;;;;;4918568;29;20661;-79
2021/10/09 13:43:24;;;;;;;5.00;2.27;;;17.40;99.90;;;;;;4918375;29;20210;-77
2021/10/09 13:45:51;;;;;;;3.77;2.53;;;17.40;99.90;;;;;;4918294;29;20218;-78
2021/10/09 13:48:19;;;;;;;6.60;2.50;;;17.50;99.90;;;;;;4918018;29;20256;-76
2021/10/09 13:50:48;;;;;;;7.10;3.10;;;17.50;99.90;;;;;;4918369;29;20577;-75
2021/10/09 13:53:15;;;;;;;6.93;2.63;;;17.40;99.90;;;;;;4918278;29;20209;-76
2021/10/09 13:55:43;;;;;;;5.37;2.70;;;17.40;99.90;;;;;;4918387;29;20217;-76
2021/10/09 13:58:10;;;;;;;7.57;2.90;;;17.40;99.90;;;;;;4918076;29;20296;-76
2021/10/09 14:00:37;;;;;;;6.77;2.90;;;17.30;99.90;;;;;;4918106;29;20613;-78
2021/10/09 14:03:05;;;;;;;4.60;2.40;;;17.40;99.90;;;;;;4918017;29;20240;-77
2021/10/09 14:05:33;;;;;;;3.93;2.50;;;17.40;99.90;;;;;;4918201;29;20664;-74
2021/10/09 14:08:00;;;;;;;4.17;2.70;;;17.40;99.90;;;;;;4917976;29;20209;-74
2021/10/09 14:10:27;;;;;;;4.03;2.50;;;17.50;99.90;;;;;;4918149;29;20236;-77
2021/10/09 14:12:54;;;;;;;5.40;2.50;;;17.70;99.90;;;;;;4918008;29;20205;-77
2021/10/09 14:15:20;;;;;;;3.67;2.50;;;17.70;99.90;;;;;;4917562;29;20546;-77
2021/10/09 14:17:47;;;;;;;4.33;2.27;;;17.60;99.90;;;;;;4917637;29;20264;-77
2021/10/09 14:20:14;;;;;;;4.97;2.90;;;17.50;99.90;;;;;;4917328;29;20214;-76
2021/10/09 14:22:43;;;;;;;5.30;2.63;;;17.70;99.90;;;;;;4917535;29;20221;-75
2021/10/09 14:25:12;;;;;;;4.00;2.40;;;17.70;99.90;;;;;;4917023;29;20684;-78
2021/10/09 14:27:39;;;;;;;6.50;2.90;;;17.70;99.90;;;;;;4918075;29;20281;-76
2021/10/09 14:30:08;;;;;;;4.20;2.80;;;17.80;99.90;;;;;;4917489;29;20708;-77
2021/10/09 14:32:36;;;;;;;3.83;2.40;;;18.00;99.90;;;;;;4918015;29;20209;-76
2021/10/09 14:35:02;;;;;;;4.37;2.60;;;17.90;99.90;;;;;;4917703;29;20209;-76
2021/10/09 14:37:29;;;;;;;5.00;2.70;;;17.80;99.90;;;;;;4917449;29;20210;-74
2021/10/09 14:39:57;;;;;;;5.07;2.73;;;17.70;99.90;;;;;;4917276;29;20225;-78
2021/10/09 14:42:24;;;;;;;5.63;2.40;;;17.60;99.90;;;;;;4917185;29;20209;-77
2021/10/09 14:44:51;;;;;;;3.60;2.40;;;17.60;99.90;;;;;;4917484;29;20225;-77
2021/10/09 14:50:06;;;;;;;5.70;3.20;;;17.60;99.90;;;;;;4916743;29;20245;-77
2021/10/09 14:52:41;;;;;;;5.97;3.70;;;17.60;99.90;;;;;;4917095;29;20229;-78
2021/10/09 15:19:44;;;;;;;5.77;2.73;;;17.50;99.90;;;;;;4916581;29;20285;-75
2021/10/09 15:22:11;;;;;;;6.23;3.37;;;17.30;99.90;;;;;;4916718;29;20673;-76
2021/10/09 15:24:38;;;;;;;5.60;3.43;;;17.50;99.90;;;;;;4916618;29;20237;-77
2021/10/09 15:27:06;;;;;;;5.57;3.30;;;17.50;99.90;;;;;;4917144;29;20210;-77
2021/10/09 15:29:33;;;;;;;6.20;3.50;;;17.50;99.90;;;;;;4916799;29;20257;-77
2021/10/09 15:32:00;;;;;;;6.13;3.37;;;17.40;99.90;;;;;;4916972;29;20210;-77
2021/10/09 15:34:27;;;;;;;6.73;3.43;;;17.30;99.90;;;;;;4916812;29;20217;-75
2021/10/09 15:36:53;;;;;;;8.23;3.27;;;17.40;99.90;;;;;;4916469;29;20673;-76
2021/10/09 15:39:20;;;;;;;6.90;3.63;;;17.30;99.90;;;;;;4916833;29;20240;-79
2021/10/09 15:41:47;;;;;;;6.07;3.47;;;17.30;99.90;;;;;;4917898;29;20236;-77
2021/10/09 15:44:15;;;;;;;6.43;3.63;;;17.30;99.90;;;;;;4917833;29;20212;-79
2021/10/09 15:46:42;;;;;;;5.10;3.30;;;17.20;99.90;;;;;;4923345;29;20205;-78
2021/10/09 15:49:09;;;;;;;4.70;3.23;;;17.10;99.90;;;;;;4926185;29;20238;-79
2021/10/09 15:51:36;;;;;;;5.07;2.90;;;17.20;99.90;;;;;;4921609;29;20193;-77
2021/10/09 15:54:03;;;;;;;6.33;3.43;;;17.20;99.90;;;;;;4924018;29;20206;-78
2021/10/09 15:56:29;;;;;;;5.67;3.07;;;17.20;99.90;;;;;;4916640;29;20297;-78
2021/10/09 15:58:57;;;;;;;5.03;2.70;;;17.00;99.90;;;;;;4916245;29;20236;-73
2021/10/09 16:01:27;;;;;;;5.90;3.10;;;17.00;99.90;;;;;;4916439;29;20206;-77
2021/10/09 16:03:55;;;;;;;7.27;3.17;;;17.00;99.90;;;;;;4916775;29;20221;-74
2021/10/09 16:06:22;;;;;;;5.60;3.63;;;17.00;99.90;;;;;;4916785;29;20209;-76
2021/10/09 16:08:49;;;;;;;5.07;3.30;;;16.90;99.90;;;;;;4916463;29;20269;-78
2021/10/09 16:11:16;;;;;;;5.50;3.10;;;16.80;99.90;;;;;;4916499;29;20681;-77
2021/10/09 16:13:43;;;;;;;6.57;3.07;;;16.70;99.90;;;;;;4916419;29;20214;-77
2021/10/09 16:16:10;;;;;;;3.90;2.57;;;16.70;99.90;;;;;;4916306;29;20242;-79
2021/10/09 16:18:39;;;;;;;6.00;3.40;;;16.80;99.90;;;;;;4916497;29;20229;-77
2021/10/09 16:21:05;;;;;;;6.53;3.50;;;16.80;99.90;;;;;;4916444;29;20221;-77
2021/10/09 16:23:32;;;;;;;5.30;3.30;;;16.80;99.90;;;;;;4916346;29;20209;-79
2021/10/09 16:26:02;;;;;;;7.27;3.23;;;16.70;99.90;;;;;;4916452;29;20210;-77
2021/10/09 16:28:29;;;;;;;5.67;3.30;;;16.60;99.90;;;;;;4916021;29;20320;-77
2021/10/09 16:30:55;;;;;;;5.40;3.20;;;16.60;99.90;;;;;;4916374;29;20209;-77
2021/10/09 16:33:22;;;;;;;6.47;3.43;;;16.50;99.90;;;;;;4916168;29;20209;-78
2021/10/09 16:35:50;;;;;;;7.20;3.50;;;16.40;99.90;;;;;;4917757;29;20209;-77
2021/10/09 16:38:17;;;;;;;6.03;3.60;;;16.40;99.90;;;;;;4919316;29;20280;-80
2021/10/09 16:40:44;;;;;;;8.60;3.97;;;16.40;99.90;;;;;;4919525;29;20214;-77
2021/10/09 16:43:11;;;;;;;7.33;3.77;;;16.40;99.90;;;;;;4919584;29;20665;-74
2021/10/09 16:45:38;;;;;;;6.47;4.10;;;16.30;99.90;;;;;;4920005;29;20214;-73
2021/10/09 16:48:05;;;;;;;5.37;3.70;;;16.10;99.90;;;;;;4919691;29;20218;-74
2021/10/09 16:50:33;;;;;;;7.07;3.57;;;15.90;99.90;;;;;;4919332;29;20238;-73
2021/10/09 16:53:01;;;;;;;7.10;3.70;;;15.70;99.90;;;;;;4919184;29;20221;-73
2021/10/09 16:55:29;;;;;;;7.33;3.27;;;15.60;99.90;;;;;;4919252;29;20206;-73
2021/10/09 16:57:56;;;;;;;5.80;3.77;;;15.40;99.90;;;;;;4919501;29;20209;-78
2021/10/09 17:00:23;;;;;;;7.10;3.53;;;15.40;99.90;;;;;;4919218;29;20216;-74
2021/10/09 17:02:50;;;;;;;5.27;3.30;;;15.30;99.90;;;;;;4918975;29;20216;-73
2021/10/09 17:05:17;;;;;;;7.60;3.67;;;15.10;99.90;;;;;;4919099;29;20213;-73
2021/10/09 17:07:44;;;;;;;7.13;3.73;;;15.00;99.90;;;;;;4919038;29;20661;-73
2021/10/09 17:10:12;;;;;;;5.27;3.50;;;14.80;99.90;;;;;;4918713;29;20705;-73
2021/10/09 17:12:39;;;;;;;6.10;3.73;;;14.60;99.90;;;;;;4919211;29;20245;-77
2021/10/09 17:15:08;;;;;;;5.10;3.17;;;14.50;99.90;;;;;;4918859;29;20213;-73
2021/10/09 17:17:35;;;;;;;11.70;4.57;;;14.40;99.90;;;;;;4918978;29;20305;-73
2021/10/09 17:20:01;;;;;;;8.73;3.97;;;14.20;99.90;;;;;;4918834;29;20236;-73
2021/10/09 17:22:28;;;;;;;10.57;4.10;;;14.10;99.90;;;;;;4918758;29;20699;-73
2021/10/09 17:24:55;;;;;;;5.63;3.40;;;14.00;99.90;;;;;;4918736;29;20210;-72
2021/10/09 17:27:23;;;;;;;6.10;3.60;;;14.00;99.90;;;;;;4918767;29;20206;-73
2021/10/09 17:29:50;;;;;;;6.37;3.57;;;14.00;99.90;;;;;;4919008;29;20253;-73
2021/10/09 17:32:17;;;;;;;8.63;4.03;;;13.90;99.90;;;;;;4918857;29;20268;-73
2021/10/09 17:34:44;;;;;;;7.60;3.70;;;13.70;99.90;;;;;;4918536;29;20669;-73
2021/10/09 17:37:10;;;;;;;9.30;3.67;;;13.60;99.90;;;;;;4918611;29;20228;-73
2021/10/09 17:39:37;;;;;;;10.17;4.50;;;13.40;99.90;;;;;;4918286;29;20264;-73
2021/10/09 17:42:04;;;;;;;7.40;3.40;;;13.30;99.90;;;;;;4918534;29;20665;-74
2021/10/09 17:44:34;;;;;;;6.20;3.77;;;13.20;99.90;;;;;;4918313;29;20219;-73
2021/10/09 17:47:01;;;;;;;7.83;3.90;;;13.10;99.90;;;;;;4918238;29;20245;-73
2021/10/09 17:49:28;;;;;;;7.97;3.77;;;13.10;99.90;;;;;;4918116;29;20233;-73
2021/10/09 17:51:55;;;;;;;6.80;3.87;;;13.10;99.90;;;;;;4918192;29;20315;-73
2021/10/09 17:54:22;;;;;;;9.23;4.40;;;13.10;99.90;;;;;;4918185;29;20755;-73
2021/10/09 17:56:52;;;;;;;8.90;4.40;;;13.00;99.90;;;;;;4917945;29;20216;-73
2021/10/09 17:59:20;;;;;;;8.83;4.90;;;12.90;99.90;;;;;;4926756;29;20800;-73
2021/10/09 18:01:49;;;;;;;9.53;5.20;;;12.80;99.90;;;;;;4928510;29;20743;-73
2021/10/09 18:04:15;;;;;;;11.07;5.43;;;12.80;99.90;;;;;;4928619;29;20215;-73
2021/10/09 18:06:42;;;;;;;14.80;7.10;;;12.80;99.90;;;;;;4924794;29;20214;-74
2021/10/09 18:09:09;;;;;;;11.30;6.10;;;12.70;99.90;;;;;;4917282;29;20229;-74
2021/10/09 18:11:37;;;;;;;11.30;5.77;;;12.60;99.90;;;;;;4917724;29;20602;-74
2021/10/09 18:14:04;;;;;;;10.63;6.10;;;12.70;99.90;;;;;;4929363;29;20213;-73
2021/10/09 18:16:31;;;;;;;10.33;5.80;;;12.50;99.90;;;;;;4936662;29;20219;-73
2021/10/09 18:18:59;;;;;;;13.50;6.73;;;12.40;99.90;;;;;;4936352;29;20229;-73
2021/10/09 18:21:26;;;;;;;15.50;7.23;;;12.40;99.90;;;;;;4936896;29;20213;-73
2021/10/09 18:23:52;;;;;;;17.63;7.73;;;12.40;99.90;;;;;;4936847;29;20220;-73
2021/10/09 18:26:19;;;;;;;14.23;7.80;;;12.40;99.90;;;;;;4936883;29;20208;-72
2021/10/09 18:28:46;;;;;;;19.80;9.00;;;12.30;99.90;;;;;;4936437;29;20225;-73
2021/10/09 18:31:13;;;;;;;18.47;8.43;;;12.20;99.90;;;;;;4936577;29;20791;-73
2021/10/09 18:33:40;;;;;;;14.80;8.57;;;12.20;99.90;;;;;;4936564;29;20219;-75
2021/10/09 18:36:08;;;;;;;15.27;8.33;;;12.20;99.90;;;;;;4936640;29;20212;-73
2021/10/09 18:38:35;;;;;;;13.90;8.13;;;12.10;99.90;;;;;;4936194;29;20664;-75
2021/10/09 18:41:01;;;;;;;15.60;8.57;;;12.20;99.90;;;;;;4936251;28;20699;-76
2021/10/09 18:43:28;;;;;;;16.13;8.50;;;12.10;99.90;;;;;;4936526;29;20660;-73
2021/10/09 18:45:55;;;;;;;15.63;8.60;;;12.10;99.90;;;;;;4936229;29;20580;-71
2021/10/09 18:48:22;;;;;;;19.30;7.90;;;12.00;99.90;;;;;;4936135;29;20267;-72
2021/10/09 18:50:49;;;;;;;17.50;8.17;;;11.90;99.90;;;;;;4936062;29;20733;-72
2021/10/09 18:53:17;;;;;;;14.87;8.90;;;11.80;99.90;;;;;;4935918;29;20209;-71
2021/10/09 18:55:44;;;;;;;16.70;9.27;;;11.70;99.90;;;;;;4935880;29;20212;-72
2021/10/09 18:58:11;;;;;;;16.10;9.37;;;11.70;99.90;;;;;;4935325;29;20775;-75
2021/10/09 19:00:38;;;;;;;15.30;8.77;;;11.80;99.90;;;;;;4936100;29;20209;-71
2021/10/09 19:03:06;;;;;;;15.17;8.37;;;11.80;99.90;;;;;;4936219;29;20216;-72
2021/10/09 19:05:33;;;;;;;18.73;9.70;;;11.70;99.90;;;;;;4936092;29;20212;-72
2021/10/09 19:08:00;;;;;;;18.63;8.80;;;11.70;99.90;;;;;;4936002;29;20212;-75
2021/10/09 19:10:28;;;;;;;15.33;8.10;;;11.70;99.90;;;;;;4936006;29;20239;-76
2021/10/09 19:12:57;;;;;;;13.93;8.53;;;11.60;99.90;;;;;;4936034;29;20304;-73
2021/10/09 19:15:25;;;;;;;15.23;8.20;;;11.60;99.90;;;;;;4935982;29;20271;-73
2021/10/09 19:17:52;;;;;;;14.03;7.87;;;11.50;99.90;;;;;;4935977;29;20220;-73
2021/10/09 19:20:19;;;;;;;15.83;9.13;;;11.50;99.90;;;;;;4936264;29;20205;-72
2021/10/09 19:22:45;;;;;;;16.13;8.43;;;11.40;99.90;;;;;;4923613;29;20244;-73
2021/10/09 19:25:14;;;;;;;15.53;8.33;;;11.40;99.90;;;;;;4924801;29;20239;-73
2021/10/09 19:27:45;;;;;;;16.80;8.43;;;11.30;99.90;;;;;;4932272;29;20201;-74
2021/10/09 19:30:13;;;;;;;15.93;8.80;;;11.20;99.90;;;;;;4930346;29;20240;-72
2021/10/09 19:32:39;;;;;;;23.30;9.60;;;11.30;99.90;;;;;;4920275;29;20208;-75
2021/10/09 19:35:11;;;;;;;16.60;8.63;;;11.30;99.90;;;;;;4931402;29;20243;-71
2021/10/09 19:37:38;;;;;;;15.33;8.20;;;11.30;99.90;;;;;;4929792;29;20727;-73
2021/10/09 19:40:06;;;;;;;11.43;6.70;;;11.30;99.90;;;;;;4929076;29;20236;-74
2021/10/09 19:42:33;;;;;;;12.33;7.13;;;11.30;99.90;;;;;;4933705;29;20219;-74
2021/10/09 19:45:01;;;;;;;16.40;7.53;;;11.30;99.90;;;;;;4932347;29;20209;-73
2021/10/09 19:47:28;;;;;;;14.47;7.07;;;11.30;99.90;;;;;;4931096;29;20209;-79
2021/10/09 19:50:01;;;;;;;14.07;7.40;;;11.20;99.90;;;;;;4929825;29;20284;-73
2021/10/09 19:52:28;;;;;;;15.53;7.80;;;11.20;99.90;;;;;;4930982;29;20630;-74
2021/10/09 19:54:57;;;;;;;15.73;7.60;;;11.10;99.90;;;;;;4928847;29;20533;-74
2021/10/09 19:57:25;;;;;;;12.47;6.63;;;11.00;99.90;;;;;;4927970;29;20205;-75
2021/10/09 19:59:53;;;;;;;13.87;7.27;;;11.00;99.90;;;;;;4931619;29;20288;-74
2021/10/09 20:02:22;;;;;;;13.33;7.27;;;11.00;99.90;;;;;;4922808;29;20216;-74
2021/10/09 20:04:49;;;;;;;13.43;7.20;;;10.80;99.90;;;;;;4927024;29;20568;-73
2021/10/09 20:07:17;;;;;;;13.53;6.70;;;10.80;99.90;;;;;;4931465;29;20216;-74
2021/10/09 20:09:48;;;;;;;12.47;6.70;;;10.70;99.90;;;;;;4930882;29;20354;-74
2021/10/09 20:12:30;;;;;;;13.10;7.03;;;10.70;99.90;;;;;;4929383;29;20213;-74
2021/10/09 20:14:57;;;;;;;11.80;6.80;;;10.70;99.90;;;;;;4930192;29;20205;-73
2021/10/09 20:17:25;;;;;;;16.13;6.80;;;10.70;99.90;;;;;;4929517;29;20216;-73
2021/10/09 20:19:57;;;;;;;11.73;6.37;;;10.80;99.90;;;;;;4927976;29;20235;-74
2021/10/09 20:22:25;;;;;;;12.67;6.90;;;10.70;99.90;;;;;;4936749;29;20252;-73
2021/10/09 20:24:52;;;;;;;15.63;7.20;;;10.70;99.90;;;;;;4924130;29;20217;-73
2021/10/09 20:27:20;;;;;;;13.83;6.93;;;10.60;99.90;;;;;;4933878;29;20222;-74
2021/10/09 20:29:47;;;;;;;13.73;6.80;;;10.60;99.90;;;;;;4930802;29;20663;-75
2021/10/09 20:32:14;;;;;;;11.50;6.43;;;10.50;99.90;;;;;;4924038;29;20220;-73
2021/10/09 20:34:42;;;;;;;14.50;7.30;;;10.40;99.90;;;;;;4933262;29;20224;-75
2021/10/09 20:37:09;;;;;;;13.70;7.13;;;10.50;99.90;;;;;;4931132;29;20208;-75
2021/10/09 20:39:37;;;;;;;12.60;6.43;;;10.50;99.90;;;;;;4924561;29;20734;-74
2021/10/09 20:42:04;;;;;;;15.03;7.50;;;10.50;99.90;;;;;;4931169;29;20665;-74
2021/10/09 20:44:31;;;;;;;15.00;7.00;;;10.50;99.90;;;;;;4930114;29;20213;-72
2021/10/09 20:46:58;;;;;;;12.27;7.43;;;10.40;99.90;;;;;;4930712;29;20213;-73
2021/10/09 20:49:25;;;;;;;15.40;7.20;;;10.40;99.90;;;;;;4933701;29;20232;-72
2021/10/09 20:51:53;;;;;;;13.33;6.80;;;10.40;99.90;;;;;;4932115;29;20237;-72
2021/10/09 20:54:21;;;;;;;13.53;7.13;;;10.50;99.90;;;;;;4933041;29;20231;-74
2021/10/09 20:56:48;;;;;;;12.07;6.93;;;10.40;99.90;;;;;;4927113;29;20206;-73
2021/10/09 20:59:15;;;;;;;13.37;7.47;;;10.20;99.90;;;;;;4933696;29;20722;-73
2021/10/09 21:01:42;;;;;;;16.20;7.03;;;10.20;99.90;;;;;;4928978;29;20569;-73
2021/10/09 21:04:08;;;;;;;12.73;6.97;;;10.20;99.90;;;;;;4927284;29;20668;-73
2021/10/09 21:06:36;;;;;;;14.17;7.63;;;10.10;99.90;;;;;;4932011;29;20209;-74
